Time;durP1;ratioP1;P1;durP2;ratioP2;P2;SDS_P1;SDS_P2;PMS_P1;PMS_P2;Temp;Humidity;BMP_temperature;BMP_pressure;BME280_temperature;BME280_humidity;BME280_pressure;Samples;Min_cycle;Max_cycle;Signal;HPM_P1;HPM_P2
2022/05/12 00:01:15;;;;;;;;;2.75;2.50;;;;;21.68;48.09;102135.81;4985940;28;46001;-91
2022/05/12 00:03:41;;;;;;;;;1.25;1.25;;;;;21.20;48.49;102047.47;4982791;28;46933;-91
2022/05/12 00:06:08;;;;;;;;;1.40;1.40;;;;;21.59;48.06;102114.09;4998890;28;46131;-91
2022/05/12 00:08:34;;;;;;;;;2.20;2.20;;;;;22.08;48.12;102206.91;4987540;28;45630;-91
2022/05/12 00:10:59;;;;;;;;;2.75;2.75;;;;;21.26;48.24;102084.69;4999282;28;46088;-91
2022/05/12 00:13:25;;;;;;;;;3.25;2.00;;;;;21.64;48.17;102151.47;4982135;28;46859;-92
2022/05/12 00:15:52;;;;;;;;;2.00;2.00;;;;;21.82;48.17;102193.97;5003047;28;45764;-91
2022/05/12 00:18:18;;;;;;;;;2.20;2.20;;;;;21.33;48.31;102105.72;4987897;28;45620;-91
2022/05/12 00:20:44;;;;;;;;;3.50;2.00;;;;;21.85;48.13;102190.97;4989040;28;47606;-91
2022/05/12 00:23:14;;;;;;;;;2.00;2.00;;;;;21.81;48.46;102173.34;4984590;28;47934;-91
2022/05/12 00:25:40;;;;;;;;;1.60;1.60;;;;;21.30;48.58;102091.50;4986435;28;45945;-91
2022/05/12 00:28:06;;;;;;;;;2.00;1.50;;;;;21.76;48.22;102176.47;4985885;28;45674;-90
2022/05/12 00:30:32;;;;;;;;;4.00;3.00;;;;;21.04;48.37;102059.69;5003856;28;45675;-91
2022/05/12 00:32:57;;;;;;;;;0.75;0.75;;;;;21.64;48.46;102156.84;4998651;28;46020;-91
2022/05/12 00:35:22;;;;;;;;;2.25;2.25;;;;;;;;4999807;28;45690;-91
2022/05/12 00:37:48;;;;;;;;;2.00;1.75;;;;;21.94;48.05;102187.44;5003864;28;45984;-92
2022/05/12 00:40:15;;;;;;;;;3.00;3.00;;;;;21.47;48.42;102102.59;4989061;28;45480;-91
2022/05/12 00:42:53;;;;;;;;;1.20;1.20;;;;;21.97;48.52;102168.22;4986888;28;49187;-91
2022/05/12 00:45:18;;;;;;;;;2.20;2.20;;;;;21.18;48.74;102014.38;5018142;28;45627;-90
2022/05/12 00:47:44;;;;;;;;;1.00;1.00;;;;;21.16;48.59;102021.78;4982981;28;45776;-91
2022/05/12 00:50:09;;;;;;;;;2.00;2.00;;;;;21.00;48.59;101985.38;4983529;28;45595;-90
2022/05/12 00:52:35;;;;;;;;;2.00;2.00;;;;;21.82;48.83;102116.50;4988756;28;46843;-91
2022/05/12 00:55:13;;;;;;;;;2.00;2.00;;;;;21.24;48.36;102043.50;5001401;28;46045;-91
2022/05/12 00:57:40;;;;;;;;;1.60;1.60;;;;;21.68;48.66;102104.28;4998530;28;45678;-92
2022/05/12 01:00:08;;;;;;;;;2.00;2.00;;;;;21.40;48.68;102042.09;4996069;28;47194;-91
2022/05/12 01:02:33;;;;;;;;;3.00;1.60;;;;;21.91;48.59;102133.72;5003166;28;47464;-91
2022/05/12 01:04:59;;;;;;;;;2.00;1.50;;;;;21.17;48.80;102008.13;5001000;28;45636;-91
2022/05/12 01:07:24;;;;;;;;;2.50;1.50;;;;;21.15;48.71;102033.53;4996024;28;45527;-91
2022/05/12 01:09:50;;;;;;;;;2.00;2.00;;;;;21.74;48.86;102114.47;5005070;28;45574;-90
2022/05/12 01:12:15;;;;;;;;;2.00;1.00;;;;;21.81;48.79;102124.72;5003166;28;47157;-91
2022/05/12 01:14:41;;;;;;;;;1.00;1.00;;;;;21.60;48.84;102104.97;4987288;28;46035;-90
2022/05/12 01:17:07;;;;;;;;;2.25;2.25;;;;;21.89;48.91;102143.78;4981714;28;45661;-91
2022/05/12 01:19:35;;;;;;;;;1.60;1.60;;;;;21.60;48.76;102106.84;4996646;28;47908;-91
2022/05/12 01:22:01;;;;;;;;;1.40;1.40;;;;;21.67;48.92;102123.31;4996580;28;48444;-91
2022/05/12 01:24:37;;;;;;;;;2.75;2.75;;;;;21.69;48.78;102115.91;5003235;28;47305;-91
2022/05/12 01:27:22;;;;;;;;;3.80;2.00;;;;;21.17;48.75;102021.63;4988504;28;45665;-90
2022/05/12 01:29:55;;;;;;;;;1.60;1.60;;;;;21.88;49.08;102133.97;4990725;28;45785;-90
2022/05/12 01:32:22;;;;;;;;;2.00;2.00;;;;;21.03;48.85;101998.63;5013631;28;47889;-91
2022/05/12 01:34:48;;;;;;;;;1.00;1.00;;;;;21.08;48.88;102009.81;4984304;28;46008;-91
2022/05/12 01:37:13;;;;;;;;;2.25;2.00;;;;;21.55;49.10;102077.56;5005773;28;45812;-91
2022/05/12 01:39:39;;;;;;;;;1.50;1.50;;;;;21.07;49.12;102015.38;4983066;28;45793;-90
2022/05/12 01:42:06;;;;;;;;;2.00;2.00;;;;;21.29;49.08;102046.63;5005023;28;48128;-91
2022/05/12 01:44:32;;;;;;;;;1.00;1.00;;;;;21.25;49.00;102050.59;5009326;28;45731;-91
2022/05/12 01:46:58;;;;;;;;;1.25;1.25;;;;;21.14;49.16;102037.25;5028329;28;44933;-91
2022/05/12 01:49:23;;;;;;;;;2.50;2.00;;;;;21.06;49.05;102019.91;5029635;28;45550;-92
2022/05/12 01:51:56;;;;;;;;;3.00;1.50;;;;;21.59;48.89;102105.13;5019918;28;46934;-92
2022/05/12 01:54:22;;;;;;;;;2.80;2.00;;;;;21.85;48.98;102174.75;4988067;28;47188;-90
2022/05/12 01:56:48;;;;;;;;;3.20;2.40;;;;;21.14;49.02;102064.25;5000411;28;47321;-91
2022/05/12 01:59:13;;;;;;;;;2.00;2.00;;;;;21.40;49.03;102105.00;4983297;28;45590;-91
2022/05/12 02:01:39;;;;;;;;;2.00;2.00;;;;;21.82;49.12;102192.13;5000022;28;47179;-90
2022/05/12 02:04:05;;;;;;;;;1.50;1.00;;;;;21.42;48.90;102107.56;4998996;28;47087;-91
2022/05/12 02:06:31;;;;;;;;;2.00;1.00;;;;;21.52;49.07;102116.50;5002606;28;47357;-90
2022/05/12 02:08:57;;;;;;;;;2.20;2.00;;;;;21.22;49.37;102056.28;5002922;28;47120;-90
2022/05/12 02:11:23;;;;;;;;;0.20;0.20;;;;;21.33;49.26;102074.19;4985196;28;46905;-89
2022/05/12 02:13:49;;;;;;;;;1.50;1.50;;;;;21.15;49.46;102038.94;4980882;28;53368;-91
2022/05/12 02:16:14;;;;;;;;;2.00;1.50;;;;;21.29;49.27;102064.66;4997754;28;46145;-90
2022/05/12 02:18:40;;;;;;;;;2.00;1.25;;;;;21.81;49.41;102144.47;4984068;28;47096;-90
2022/05/12 02:21:05;;;;;;;;;1.00;1.00;;;;;21.37;49.14;102082.84;4994001;28;47208;-92
2022/05/12 02:23:31;;;;;;;;;1.50;1.50;;;;;21.11;49.07;102034.84;5001993;28;45642;-92
2022/05/12 02:25:56;;;;;;;;;1.00;1.00;;;;;21.24;49.24;102080.41;4989960;28;45995;-92
2022/05/12 02:28:21;;;;;;;;;0.75;0.75;;;;;20.87;49.36;102005.41;4988188;28;46235;-91
2022/05/12 02:30:47;;;;;;;;;2.00;1.00;;;;;21.15;49.26;102066.78;5016760;28;47048;-91
2022/05/12 02:33:12;;;;;;;;;1.25;1.25;;;;;21.51;49.51;102141.78;4986827;28;46125;-91
2022/05/12 02:35:38;;;;;;;;;1.25;1.00;;;;;21.27;49.40;102090.94;4979945;28;47222;-91
2022/05/12 02:38:04;;;;;;;;;1.00;1.00;;;;;21.26;49.43;102083.81;4989821;28;45798;-91
2022/05/12 02:40:31;;;;;;;;;1.25;1.25;;;;;21.42;49.37;102110.25;4985752;28;48126;-91
2022/05/12 02:42:57;;;;;;;;;2.60;1.60;;;;;21.03;49.30;102041.78;4997176;28;45578;-91
2022/05/12 02:45:22;;;;;;;;;1.25;1.00;;;;;21.24;49.35;102059.69;4987025;28;45580;-91
2022/05/12 02:47:48;;;;;;;;;3.00;2.75;;;;;21.24;49.28;102065.09;4996935;28;46115;-92
2022/05/12 02:50:14;;;;;;;;;3.00;3.00;;;;;21.12;49.50;102050.03;4980511;28;47598;-91
2022/05/12 02:52:40;;;;;;;;;1.80;1.80;;;;;21.74;49.47;102149.59;4990231;28;46215;-91
2022/05/12 02:55:06;;;;;;;;;3.00;3.00;;;;;21.30;49.47;102080.72;4999565;28;45405;-91
2022/05/12 02:57:32;;;;;;;;;2.00;2.00;;;;;21.25;49.30;102064.09;4985756;28;45570;-90
2022/05/12 02:59:57;;;;;;;;;2.00;2.00;;;;;21.06;49.18;102033.41;4998814;28;48481;-92
2022/05/12 03:02:23;;;;;;;;;2.00;2.00;;;;;21.04;49.40;102027.31;4988262;28;50922;-91
2022/05/12 03:04:48;;;;;;;;;1.25;1.25;;;;;21.25;49.35;102064.09;5013710;28;46038;-91
2022/05/12 03:07:14;;;;;;;;;2.75;2.50;;;;;21.55;49.63;102098.31;4992945;28;46245;-90
2022/05/12 03:09:40;;;;;;;;;2.80;2.80;;;;;20.73;49.38;101976.16;4989789;28;47518;-91
2022/05/12 03:12:06;;;;;;;;;2.25;2.25;;;;;21.03;49.46;102033.69;4994692;28;45560;-91
2022/05/12 03:14:32;;;;;;;;;4.00;2.00;;;;;21.57;49.39;102142.22;4992181;28;45562;-92
2022/05/12 03:16:57;;;;;;;;;2.00;2.00;;;;;21.39;49.30;102102.44;4994251;28;45639;-91
2022/05/12 03:19:23;;;;;;;;;3.00;2.00;;;;;21.38;49.40;102104.28;5015357;28;46988;-90
2022/05/12 03:21:49;;;;;;;;;4.75;3.00;;;;;21.47;49.26;102113.38;5000001;28;46470;-91
2022/05/12 03:24:15;;;;;;;;;3.00;2.60;;;;;21.55;49.51;102103.69;4985331;28;45587;-91
2022/05/12 03:26:41;;;;;;;;;2.00;2.00;;;;;21.30;49.33;102071.75;5004629;28;45654;-92
2022/05/12 03:29:06;;;;;;;;;4.25;3.25;;;;;20.97;49.46;102015.34;5006515;28;47401;-92
2022/05/12 03:31:32;;;;;;;;;3.75;3.75;;;;;21.52;49.37;102105.69;5002120;28;45599;-92
2022/05/12 03:33:59;;;;;;;;;3.25;3.25;;;;;21.49;49.36;102097.88;5004036;28;46097;-91
2022/05/12 03:36:25;;;;;;;;;3.00;3.00;;;;;;;;5002744;28;45605;-91
2022/05/12 03:38:50;;;;;;;;;3.00;3.00;;;;;20.96;49.52;102010.94;5014339;28;48575;-92
2022/05/12 03:41:16;;;;;;;;;2.00;2.00;;;;;20.95;49.53;102011.94;5011639;28;45961;-90
2022/05/12 03:46:25;;;;;;;;;2.00;2.00;;;;;21.03;49.37;102008.56;5023136;28;45522;-91
2022/05/12 03:48:51;;;;;;;;;2.00;2.00;;;;;21.15;49.58;102033.53;5003483;28;47133;-91
2022/05/12 03:51:17;;;;;;;;;2.75;2.75;;;;;21.17;49.50;102034.28;5004781;28;46061;-91
2022/05/12 03:53:42;;;;;;;;;4.00;2.00;;;;;21.13;49.53;102022.06;4987847;28;46615;-91
2022/05/12 03:56:08;;;;;;;;;2.25;2.25;;;;;21.17;49.73;102028.88;4989286;28;46174;-91
2022/05/12 03:58:34;;;;;;;;;2.25;2.25;;;;;21.49;49.62;102087.09;4999942;28;47056;-91
2022/05/12 04:01:00;;;;;;;;;2.20;2.20;;;;;21.13;49.37;102036.41;4989760;28;45625;-91
2022/05/12 04:03:26;;;;;;;;;3.20;2.00;;;;;20.84;49.70;101989.50;5000212;28;46052;-91
2022/05/12 04:05:52;;;;;;;;;4.60;4.00;;;;;21.02;50.07;102023.88;5016716;28;46139;-92
2022/05/12 04:08:18;;;;;;;;;4.75;3.00;;;;;21.01;50.24;102021.31;5005245;28;48529;-91
2022/05/12 04:10:43;;;;;;;;;3.50;3.50;;;;;21.15;50.60;102044.34;4999563;28;45672;-91
2022/05/12 04:13:08;;;;;;;;;3.25;3.25;;;;;20.97;50.59;102020.72;5001297;28;45597;-91
2022/05/12 04:15:34;;;;;;;;;3.00;3.00;;;;;21.22;50.43;102069.78;5004417;28;45749;-91
2022/05/12 04:18:02;;;;;;;;;2.50;2.50;;;;;21.15;50.69;102049.75;5003096;28;46327;-91
2022/05/12 04:20:28;;;;;;;;;3.00;3.00;;;;;20.97;50.62;102018.88;4985303;28;46170;-91
2022/05/12 04:22:53;;;;;;;;;4.40;4.40;;;;;20.87;50.86;102016.19;5017494;28;45744;-91
2022/05/12 04:25:19;;;;;;;;;3.00;3.00;;;;;21.15;51.38;102058.69;4988132;28;45607;-91
2022/05/12 04:27:45;;;;;;;;;3.00;3.00;;;;;21.27;51.04;102077.44;4983485;28;46978;-91
2022/05/12 04:30:12;;;;;;;;;3.75;3.75;;;;;21.25;51.44;102083.00;4999669;28;47293;-91
2022/05/12 04:32:38;;;;;;;;;5.20;4.20;;;;;21.02;51.02;102047.31;4984962;28;45607;-91
2022/05/12 04:35:14;;;;;;;;;2.60;2.20;;;;;21.47;51.35;102124.19;4994476;28;46238;-90
2022/05/12 04:37:50;;;;;;;;;5.60;4.20;;;;;21.01;51.30;102045.59;4992266;28;47246;-90
2022/05/12 04:40:24;;;;;;;;;4.00;4.00;;;;;21.14;51.28;102061.53;4992390;28;47921;-91
2022/05/12 04:42:50;;;;;;;;;6.20;4.00;;;;;21.00;51.14;102058.22;4983698;28;46343;-91
2022/05/12 04:45:16;;;;;;;;;4.80;3.80;;;;;20.92;51.15;102034.66;4984445;28;45709;-91
2022/05/12 04:47:41;;;;;;;;;2.75;2.75;;;;;21.19;50.92;102091.66;4983258;28;47102;-91
2022/05/12 04:50:09;;;;;;;;;4.00;3.00;;;;;21.03;51.20;102047.19;4980129;28;46095;-90
2022/05/12 04:52:34;;;;;;;;;2.80;2.80;;;;;20.99;50.91;102051.13;4985520;28;47437;-90
2022/05/12 04:54:59;;;;;;;;;4.75;4.00;;;;;21.56;50.81;102133.28;4994717;28;45718;-91
2022/05/12 04:57:25;;;;;;;;;4.50;3.00;;;;;21.46;51.22;102133.25;4978015;28;46934;-90
2022/05/12 04:59:55;;;;;;;;;4.75;3.25;;;;;21.48;51.18;102131.28;4995740;28;45560;-90
2022/05/12 05:02:22;;;;;;;;;4.40;4.00;;;;;20.87;51.08;102043.16;4988412;28;47186;-91
2022/05/12 05:04:48;;;;;;;;;4.60;4.00;;;;;20.69;51.14;102018.72;4982813;28;45784;-90
2022/05/12 05:07:13;;;;;;;;;3.00;3.00;;;;;21.39;51.20;102145.63;4985183;28;47174;-90
2022/05/12 05:09:40;;;;;;;;;3.00;2.25;;;;;20.86;50.94;102063.03;5001068;28;45449;-91
2022/05/12 05:12:06;;;;;;;;;5.20;3.80;;;;;21.41;51.21;102140.94;5002046;28;45555;-90
2022/05/12 05:14:31;;;;;;;;;3.00;3.00;;;;;21.12;50.94;102093.19;4983636;28;46410;-91
2022/05/12 05:16:59;;;;;;;;;3.50;3.50;;;;;20.91;51.28;102069.88;4984117;28;49144;-90
2022/05/12 05:19:24;;;;;;;;;4.20;3.00;;;;;20.73;51.17;102038.19;5012242;28;45750;-90
2022/05/12 05:21:50;;;;;;;;;3.00;3.00;;;;;21.37;51.12;102147.63;4998776;28;45506;-90
2022/05/12 05:24:15;;;;;;;;;4.00;4.00;;;;;21.05;51.23;102099.16;4995521;28;45526;-90
2022/05/12 05:26:41;;;;;;;;;4.25;4.25;;;;;20.73;51.18;102057.06;5005307;28;47026;-91
2022/05/12 05:29:07;;;;;;;;;3.50;3.50;;;;;21.31;51.13;102138.25;4983401;28;45639;-90
2022/05/12 05:31:35;;;;;;;;;4.75;4.00;;;;;20.97;51.13;102085.47;4983657;28;45643;-91
2022/05/12 05:34:01;;;;;;;;;4.00;4.00;;;;;21.11;51.39;102115.78;5009899;28;45578;-91
2022/05/12 05:36:26;;;;;;;;;5.00;4.00;;;;;21.20;51.15;102134.66;5048243;28;46717;-92
2022/05/12 05:38:52;;;;;;;;;6.00;5.00;;;;;21.07;51.16;102115.19;5012869;28;45801;-90
2022/05/12 05:41:17;;;;;;;;;5.25;4.25;;;;;21.02;51.42;102110.22;4984452;28;45690;-92
2022/05/12 05:43:44;;;;;;;;;3.00;3.00;;;;;21.15;51.29;102126.16;5001890;28;45992;-92
2022/05/12 05:46:10;;;;;;;;;5.60;4.00;;;;;21.09;51.13;102129.41;4998221;28;46736;-92
2022/05/12 05:48:35;;;;;;;;;3.50;3.50;;;;;21.30;51.27;102155.44;5002642;28;46039;-92
2022/05/12 05:53:45;;;;;;;;;4.40;4.40;;;;;20.65;51.40;102045.09;5016932;28;45381;-91
2022/05/12 05:56:18;;;;;;;;;6.00;5.75;;;;;21.01;51.36;102097.69;5000338;28;47954;-92
2022/05/12 05:58:44;;;;;;;;;5.40;5.20;;;;;20.85;51.34;102074.84;4992136;28;45626;-93
2022/05/12 06:01:27;;;;;;;;;6.60;6.60;;;;;21.12;51.25;102125.56;5008642;28;45579;-94
2022/05/12 06:03:57;;;;;;;;;10.40;7.60;;;;;21.02;51.50;102125.53;5003334;28;45610;-93
2022/05/12 06:06:26;;;;;;;;;7.40;6.80;;;;;20.64;51.56;102054.19;4998803;28;46811;-93
2022/05/12 06:08:52;;;;;;;;;6.20;6.20;;;;;20.71;51.27;102069.84;4994929;28;46648;-92
2022/05/12 06:11:17;;;;;;;;;9.80;7.60;;;;;21.24;51.59;102151.44;4984309;28;46099;-92
2022/05/12 06:13:44;;;;;;;;;8.00;8.00;;;;;20.81;51.54;102081.47;5001023;28;47529;-92
2022/05/12 06:16:09;;;;;;;;;10.80;9.00;;;;;21.00;51.64;102114.03;4982645;28;47433;-93
2022/05/12 06:18:36;;;;;;;;;11.50;8.25;;;;;20.97;51.45;102112.44;4985888;28;46113;-93
2022/05/12 06:21:03;;;;;;;;;8.80;7.00;;;;;21.14;51.58;102129.00;5009413;28;45447;-92
2022/05/12 06:23:30;;;;;;;;;7.00;5.40;;;;;20.73;51.61;102065.16;4994116;28;47928;-92
2022/05/12 06:25:58;;;;;;;;;7.40;7.40;;;;;20.72;51.32;102058.03;4989363;28;48597;-93
2022/05/12 06:28:26;;;;;;;;;6.60;5.20;;;;;21.23;51.39;102138.09;5005314;28;45780;-92
2022/05/12 06:30:51;;;;;;;;;7.20;7.20;;;;;20.97;51.83;102096.25;4993570;28;45319;-90
2022/05/12 06:33:17;;;;;;;;;6.50;6.00;;;;;21.51;51.71;102195.78;4982005;28;45670;-92
2022/05/12 06:35:43;;;;;;;;;6.60;5.40;;;;;20.91;51.79;102091.44;4994358;28;47420;-91
2022/05/12 06:38:10;;;;;;;;;5.00;5.00;;;;;21.55;51.90;102190.09;5000905;28;47352;-92
2022/05/12 06:40:36;;;;;;;;;5.60;5.60;;;;;21.04;51.76;102115.47;4999737;28;46119;-92
2022/05/12 06:43:05;;;;;;;;;9.00;6.75;;;;;20.67;51.97;102041.44;5013611;28;46320;-91
2022/05/12 06:45:51;;;;;;;;;7.00;6.20;;;;;21.04;51.53;102105.53;4997210;28;56109;-93
2022/05/12 06:48:23;;;;;;;;;7.60;7.00;;;;;21.03;51.74;102101.13;4993622;28;47227;-92
2022/05/12 06:50:51;;;;;;;;;6.00;6.00;;;;;20.69;51.45;102045.69;4996212;28;47042;-92
2022/05/12 06:53:17;;;;;;;;;6.00;6.00;;;;;20.93;51.88;102084.91;5014275;28;45491;-92
2022/05/12 06:55:42;;;;;;;;;5.75;5.75;;;;;21.31;51.68;102157.97;5012440;28;47147;-92
2022/05/12 06:58:09;;;;;;;;;6.50;6.00;;;;;21.03;51.59;102106.53;5000035;28;46781;-92
2022/05/12 07:00:35;;;;;;;;;6.80;5.80;;;;;20.86;51.69;102081.06;5012354;28;46972;-92
2022/05/12 07:03:01;;;;;;;;;7.00;5.25;;;;;21.05;51.88;102109.97;5027479;28;47297;-92
2022/05/12 07:05:35;;;;;;;;;6.50;6.00;;;;;21.49;51.56;102176.19;5005994;28;47315;-96
2022/05/12 07:08:01;;;;;;;;;5.80;4.40;;;;;21.03;51.38;102106.53;4993804;28;45711;-92
2022/05/12 07:10:27;;;;;;;;;4.00;4.00;;;;;20.62;51.50;102029.22;4990581;28;45786;-91
2022/05/12 07:12:54;;;;;;;;;6.60;4.60;;;;;21.30;51.39;102150.03;4997212;28;45570;-91
2022/05/12 07:15:27;;;;;;;;;5.40;4.60;;;;;20.85;51.52;102082.94;5026533;28;46816;-92
2022/05/12 07:17:56;;;;;;;;;4.60;4.20;;;;;21.37;51.37;102161.94;4995214;28;45507;-91
2022/05/12 07:29:09;;;;;;;;;;;;;;;;;;;;;
2022/05/12 07:31:55;;;;;;;;;5.60;4.00;;;;;21.09;51.38;102097.03;5023370;28;68953;-94
2022/05/12 07:35:12;;;;;;;;;3.80;3.60;;;;;20.94;51.48;102064.19;5013369;28;46279;-94
2022/05/12 07:38:17;;;;;;;;;;;;;;;;;;;;;
2022/05/12 07:40:45;;;;;;;;;3.80;2.60;;;;;21.36;51.06;102133.28;5025041;28;72144;-93
2022/05/12 07:43:23;;;;;;;;;6.00;3.00;;;;;21.65;50.91;102174.78;5012010;28;47398;-94
2022/05/12 07:45:48;;;;;;;;;4.80;4.00;;;;;21.16;51.11;102100.88;5019645;28;45531;-92
2022/05/12 07:49:23;;;;;;;;;3.00;3.00;;;;;20.84;50.92;102065.03;5025714;28;46037;-96
2022/05/12 07:52:14;;;;;;;;;;;;;;;;;;;;;
2022/05/12 07:55:18;;;;;;;;;5.20;3.20;;;;;21.71;51.08;102195.81;5008058;28;69342;-94
2022/05/12 08:01:49;;;;;;;;;3.00;3.00;;;;;21.42;51.23;102150.75;4964350;28;45571;-95
2022/05/12 08:04:42;;;;;;;;;4.20;3.00;;;;;21.75;51.37;102199.06;4947580;28;45414;-95
2022/05/12 08:07:49;;;;;;;;;2.40;2.20;;;;;21.75;51.26;102199.94;4936900;28;45569;-95
2022/05/12 08:21:41;;;;;;;;;4.20;2.80;;;;;21.34;51.42;102129.88;5469292;22;46238;-93
2022/05/12 08:24:12;;;;;;;;;2.50;2.50;;;;;21.15;51.25;102092.91;5044019;27;47851;-93
2022/05/12 08:28:06;;;;;;;;;5.00;3.00;;;;;20.87;51.17;102051.25;5063057;27;45561;-95
2022/05/12 08:30:39;;;;;;;;;2.40;2.40;;;;;21.06;51.15;102078.41;4991691;28;45674;-94
2022/05/12 08:33:05;;;;;;;;;2.60;2.60;;;;;21.08;51.34;102082.69;4962925;28;45601;-91
2022/05/12 09:18:20;;;;;;;;;;;;;;;;;;;;;
2022/05/12 09:30:12;;;;;;;;;4.00;4.00;;;;;21.72;50.11;102089.47;6108152;22;45808;-92
2022/05/12 12:23:28;;;;;;;;;5.00;4.60;;;;;23.04;52.23;102165.44;5783103;22;45908;-92
2022/05/12 12:26:26;;;;;;;;;4.20;3.60;;;;;23.02;51.58;102171.00;5018423;28;45385;-94
2022/05/12 12:32:25;;;;;;;;;5.20;5.20;;;;;22.99;51.55;102155.06;4999590;28;45410;-95
2022/05/12 13:38:45;;;;;;;;;10.40;5.00;;;;;23.31;49.21;102108.72;4897510;28;46025;-92
2022/05/12 13:42:11;;;;;;;;;7.20;6.00;;;;;22.81;49.19;102034.16;4899537;28;45745;-94
2022/05/12 14:03:06;;;;;;;;;;;;;;;;;;;;;
2022/05/12 14:23:48;;;;;;;;;7.40;6.40;;;;;22.62;48.76;101975.63;5110160;27;45508;-94
2022/05/12 14:30:21;;;;;;;;;;;;;;;;;;;;;
2022/05/12 14:36:38;;;;;;;;;7.40;6.00;;;;;23.23;49.12;102042.66;5012024;28;45567;-95
2022/05/12 14:39:35;;;;;;;;;;;;;;;;;;;;;
2022/05/12 14:42:27;;;;;;;;;6.20;4.60;;;;;22.96;49.00;102001.16;5011208;28;69555;-93
2022/05/12 15:29:28;;;;;;;;;7.40;7.40;;;;;22.93;48.48;101975.25;5013580;28;47357;-95
2022/05/12 17:59:38;;;;;;;;;5.20;4.40;;;;;23.10;51.02;102074.66;4980434;28;45620;-92
